HBKEY LSZH-LFLL
Flight info
| Callsign | HBKEY |
|---|---|
| Flight time | 0h 41m |
| Altitude | 12000 |
| Route | VEBIT DCT VEBIT T50 ROTOS Z669 MILPA/N0177F080 |
| Aircraft | DA42/L-SBDGRY/S |
Departure
| Time | 2026-05-05 20:14 |
|---|---|
| Airport | Zürich Airport (LSZH) |
Arrival
| Time | 2026-05-05 20:56 |
|---|---|
| Airport | Lyon Saint-Exupéry Airport (LFLL) |
| Time | Latitude | Longitude | Altitude | Speed | Heading |
|---|---|---|---|---|---|
| 2026-05-05 19:46 | 47.45777 | 8.57328 | 1397 ft | 0 kts | 9° |
| 2026-05-05 20:03 | 47.45778 | 8.57329 | 1397 ft | 1 kts | 15° |
| 2026-05-05 20:03 | 47.45748 | 8.57296 | 1393 ft | 13 kts | 237° |
| 2026-05-05 20:04 | 47.45743 | 8.57119 | 1394 ft | 19 kts | 275° |
| 2026-05-05 20:04 | 47.45774 | 8.56937 | 1393 ft | 22 kts | 272° |
| 2026-05-05 20:04 | 47.45793 | 8.56664 | 1397 ft | 28 kts | 277° |
| 2026-05-05 20:04 | 47.45863 | 8.56465 | 1397 ft | 14 kts | 317° |
| 2026-05-05 20:05 | 47.45869 | 8.56457 | 1397 ft | 0 kts | 317° |
| 2026-05-05 20:06 | 47.45929 | 8.56377 | 1396 ft | 22 kts | 320° |
| 2026-05-05 20:06 | 47.45948 | 8.56353 | 1393 ft | 0 kts | 317° |
| 2026-05-05 20:11 | 47.45985 | 8.56326 | 1393 ft | 4 kts | 352° |
| 2026-05-05 20:11 | 47.46050 | 8.56331 | 1395 ft | 18 kts | 6° |
| 2026-05-05 20:11 | 47.46184 | 8.56360 | 1404 ft | 10 kts | 0° |
| 2026-05-05 20:12 | 47.46203 | 8.56346 | 1399 ft | 0 kts | 316° |
| 2026-05-05 20:13 | 47.46214 | 8.56331 | 1400 ft | 18 kts | 316° |
| 2026-05-05 20:13 | 47.46477 | 8.55973 | 1397 ft | 80 kts | 316° |
| 2026-05-05 20:14 | 47.46938 | 8.55366 | 1627 ft | 92 kts | 317° |
| 2026-05-05 20:14 | 47.47421 | 8.54711 | 1982 ft | 96 kts | 314° |
| 2026-05-05 20:14 | 47.47941 | 8.54011 | 2303 ft | 103 kts | 317° |
| 2026-05-05 20:14 | 47.48492 | 8.53330 | 2684 ft | 103 kts | 319° |
| 2026-05-05 20:15 | 47.49061 | 8.52672 | 3066 ft | 104 kts | 321° |
| 2026-05-05 20:15 | 47.49646 | 8.52038 | 3456 ft | 105 kts | 323° |
| 2026-05-05 20:15 | 47.50249 | 8.51425 | 3835 ft | 105 kts | 324° |
| 2026-05-05 20:15 | 47.50859 | 8.50845 | 4217 ft | 106 kts | 326° |
| 2026-05-05 20:16 | 47.51493 | 8.50282 | 4594 ft | 107 kts | 328° |
| 2026-05-05 20:16 | 47.52107 | 8.49672 | 4968 ft | 107 kts | 319° |
| 2026-05-05 20:16 | 47.52678 | 8.48822 | 5085 ft | 131 kts | 308° |
| 2026-05-05 20:16 | 47.53190 | 8.47581 | 5092 ft | 151 kts | 294° |
| 2026-05-05 20:17 | 47.53487 | 8.46029 | 5090 ft | 162 kts | 277° |
| 2026-05-05 20:17 | 47.53470 | 8.44330 | 5092 ft | 169 kts | 261° |
| 2026-05-05 20:17 | 47.53099 | 8.42664 | 5091 ft | 173 kts | 244° |
| 2026-05-05 20:17 | 47.52593 | 8.41149 | 5404 ft | 156 kts | 244° |
| 2026-05-05 20:18 | 47.52132 | 8.39819 | 5908 ft | 139 kts | 238° |
| 2026-05-05 20:18 | 47.51433 | 8.38832 | 6175 ft | 142 kts | 211° |
| 2026-05-05 20:18 | 47.50492 | 8.38372 | 6462 ft | 144 kts | 194° |
| 2026-05-05 20:18 | 47.49515 | 8.38048 | 6748 ft | 144 kts | 194° |
| 2026-05-05 20:19 | 47.48532 | 8.37727 | 7027 ft | 145 kts | 194° |
| 2026-05-05 20:19 | 47.47543 | 8.37406 | 7301 ft | 146 kts | 194° |
| 2026-05-05 20:19 | 47.46551 | 8.37083 | 7587 ft | 146 kts | 194° |
| 2026-05-05 20:19 | 47.45570 | 8.36763 | 7859 ft | 147 kts | 194° |
| 2026-05-05 20:20 | 47.44571 | 8.36439 | 8130 ft | 147 kts | 194° |
| 2026-05-05 20:20 | 47.43568 | 8.36111 | 8411 ft | 148 kts | 194° |
| 2026-05-05 20:20 | 47.42561 | 8.35782 | 8692 ft | 149 kts | 194° |
| 2026-05-05 20:20 | 47.41548 | 8.35451 | 8964 ft | 150 kts | 194° |
| 2026-05-05 20:21 | 47.40531 | 8.35120 | 9237 ft | 150 kts | 194° |
| 2026-05-05 20:21 | 47.39523 | 8.34716 | 9508 ft | 150 kts | 206° |
| 2026-05-05 20:21 | 47.38717 | 8.33770 | 9799 ft | 149 kts | 233° |
| 2026-05-05 20:21 | 47.38201 | 8.32446 | 10079 ft | 149 kts | 243° |
| 2026-05-05 20:22 | 47.37716 | 8.31090 | 10349 ft | 150 kts | 243° |
| 2026-05-05 20:22 | 47.37233 | 8.29728 | 10616 ft | 150 kts | 243° |
| 2026-05-05 20:22 | 47.36754 | 8.28377 | 10877 ft | 151 kts | 243° |
| 2026-05-05 20:22 | 47.36264 | 8.27000 | 11147 ft | 152 kts | 243° |
| 2026-05-05 20:23 | 47.35772 | 8.25617 | 11417 ft | 152 kts | 243° |
| 2026-05-05 20:23 | 47.35279 | 8.24233 | 11680 ft | 153 kts | 243° |
| 2026-05-05 20:23 | 47.33691 | 8.19782 | 12090 ft | 175 kts | 243° |
| 2026-05-05 20:23 | 47.28443 | 8.05016 | 12093 ft | 191 kts | 243° |
| 2026-05-05 20:24 | 47.23765 | 7.87262 | 12074 ft | 191 kts | 244° |
| 2026-05-05 20:24 | 47.22790 | 7.85342 | 12078 ft | 192 kts | 233° |
| 2026-05-05 20:24 | 47.18994 | 7.72438 | 12080 ft | 191 kts | 247° |
| 2026-05-05 20:24 | 47.17688 | 7.69737 | 12076 ft | 192 kts | 228° |
| 2026-05-05 20:25 | 47.16793 | 7.68316 | 12076 ft | 192 kts | 229° |
| 2026-05-05 20:25 | 47.15921 | 7.66823 | 12077 ft | 193 kts | 231° |
| 2026-05-05 20:25 | 47.15086 | 7.65285 | 12077 ft | 193 kts | 232° |
| 2026-05-05 20:25 | 47.13707 | 7.62717 | 12077 ft | 192 kts | 232° |
| 2026-05-05 20:26 | 47.12875 | 7.61175 | 12077 ft | 193 kts | 232° |
| 2026-05-05 20:26 | 47.12041 | 7.59634 | 12077 ft | 193 kts | 232° |
| 2026-05-05 20:26 | 47.11208 | 7.58093 | 12077 ft | 193 kts | 232° |
| 2026-05-05 20:26 | 47.10374 | 7.56551 | 12077 ft | 193 kts | 232° |
| 2026-05-05 20:27 | 47.09540 | 7.55010 | 12077 ft | 193 kts | 232° |
| 2026-05-05 20:27 | 47.08706 | 7.53469 | 12077 ft | 193 kts | 232° |
| 2026-05-05 20:27 | 47.07882 | 7.51948 | 12077 ft | 193 kts | 232° |
| 2026-05-05 20:27 | 47.07048 | 7.50409 | 12077 ft | 193 kts | 232° |
| 2026-05-05 20:28 | 47.06213 | 7.48870 | 12077 ft | 193 kts | 232° |
| 2026-05-05 20:28 | 47.05377 | 7.47331 | 12077 ft | 193 kts | 232° |
| 2026-05-05 20:28 | 47.03167 | 7.43261 | 12077 ft | 192 kts | 232° |
| 2026-05-05 20:28 | 46.89878 | 7.19002 | 12077 ft | 191 kts | 232° |
| 2026-05-05 20:29 | 46.78124 | 6.97693 | 12078 ft | 191 kts | 232° |
| 2026-05-05 20:29 | 46.75039 | 6.92119 | 12079 ft | 192 kts | 232° |
| 2026-05-05 20:29 | 46.74197 | 6.90603 | 12079 ft | 193 kts | 232° |
| 2026-05-05 20:29 | 46.73353 | 6.89081 | 12079 ft | 193 kts | 232° |
| 2026-05-05 20:30 | 46.72508 | 6.87558 | 12079 ft | 193 kts | 232° |
| 2026-05-05 20:30 | 46.71674 | 6.86056 | 12079 ft | 193 kts | 232° |
| 2026-05-05 20:30 | 46.64176 | 6.72582 | 12080 ft | 191 kts | 232° |
| 2026-05-05 20:30 | 46.58745 | 6.55257 | 12077 ft | 194 kts | 213° |
| 2026-05-05 20:31 | 46.56363 | 6.52342 | 12074 ft | 192 kts | 233° |
| 2026-05-05 20:31 | 46.53212 | 6.44188 | 12076 ft | 191 kts | 240° |
| 2026-05-05 20:31 | 46.45751 | 6.25808 | 12078 ft | 191 kts | 240° |
| 2026-05-05 20:31 | 46.43045 | 6.19164 | 12077 ft | 191 kts | 240° |
| 2026-05-05 20:32 | 46.41451 | 6.15259 | 12076 ft | 191 kts | 240° |
| 2026-05-05 20:32 | 46.40772 | 6.13597 | 12075 ft | 192 kts | 240° |
| 2026-05-05 20:32 | 46.40091 | 6.11929 | 12029 ft | 195 kts | 240° |
| 2026-05-05 20:32 | 46.39393 | 6.10219 | 11856 ft | 199 kts | 240° |
| 2026-05-05 20:33 | 46.38697 | 6.08517 | 11655 ft | 199 kts | 240° |
| 2026-05-05 20:33 | 46.37989 | 6.06789 | 11454 ft | 200 kts | 240° |
| 2026-05-05 20:33 | 46.37280 | 6.05058 | 11255 ft | 200 kts | 240° |
| 2026-05-05 20:33 | 46.36570 | 6.03329 | 11056 ft | 200 kts | 240° |
| 2026-05-05 20:34 | 46.35860 | 6.01601 | 10854 ft | 200 kts | 240° |
| 2026-05-05 20:34 | 46.35154 | 5.99881 | 10655 ft | 198 kts | 240° |
| 2026-05-05 20:34 | 46.34455 | 5.98177 | 10456 ft | 196 kts | 240° |
| 2026-05-05 20:34 | 46.33759 | 5.96482 | 10254 ft | 195 kts | 240° |
| 2026-05-05 20:35 | 46.33068 | 5.94801 | 10056 ft | 194 kts | 240° |
| 2026-05-05 20:35 | 46.32404 | 5.93189 | 10005 ft | 184 kts | 240° |
| 2026-05-05 20:35 | 46.31764 | 5.91640 | 10006 ft | 176 kts | 240° |
| 2026-05-05 20:35 | 46.31147 | 5.90142 | 10000 ft | 171 kts | 240° |
| 2026-05-05 20:36 | 46.30541 | 5.88671 | 9999 ft | 169 kts | 240° |
| 2026-05-05 20:36 | 46.30055 | 5.87141 | 9999 ft | 167 kts | 251° |
| 2026-05-05 20:36 | 46.29681 | 5.85560 | 9997 ft | 166 kts | 251° |
| 2026-05-05 20:36 | 46.29307 | 5.83983 | 9997 ft | 166 kts | 251° |
| 2026-05-05 20:37 | 46.28933 | 5.82411 | 9998 ft | 165 kts | 251° |
| 2026-05-05 20:37 | 46.28686 | 5.81371 | 9998 ft | 165 kts | 251° |
| 2026-05-05 20:37 | 46.28186 | 5.79268 | 9997 ft | 165 kts | 251° |
| 2026-05-05 20:37 | 46.27812 | 5.77701 | 9996 ft | 165 kts | 251° |
| 2026-05-05 20:38 | 46.27445 | 5.76160 | 9997 ft | 164 kts | 251° |
| 2026-05-05 20:38 | 46.27072 | 5.74597 | 9997 ft | 165 kts | 251° |
| 2026-05-05 20:38 | 46.26697 | 5.73022 | 9912 ft | 169 kts | 251° |
| 2026-05-05 20:38 | 46.26304 | 5.71377 | 9713 ft | 176 kts | 251° |
| 2026-05-05 20:39 | 46.25857 | 5.69703 | 9514 ft | 181 kts | 242° |
| 2026-05-05 20:39 | 46.25227 | 5.68120 | 9312 ft | 182 kts | 248° |
| 2026-05-05 20:39 | 46.24855 | 5.66368 | 9115 ft | 183 kts | 255° |
| 2026-05-05 20:39 | 46.24501 | 5.64600 | 8915 ft | 183 kts | 253° |
| 2026-05-05 20:40 | 46.24106 | 5.62852 | 8714 ft | 183 kts | 252° |
| 2026-05-05 20:40 | 46.23703 | 5.61135 | 8516 ft | 183 kts | 251° |
| 2026-05-05 20:40 | 46.23295 | 5.59398 | 8315 ft | 182 kts | 251° |
| 2026-05-05 20:40 | 46.22889 | 5.57663 | 8117 ft | 182 kts | 251° |
| 2026-05-05 20:41 | 46.22483 | 5.55930 | 7918 ft | 182 kts | 251° |
| 2026-05-05 20:41 | 46.22078 | 5.54203 | 7715 ft | 181 kts | 251° |
| 2026-05-05 20:41 | 46.21676 | 5.52485 | 7515 ft | 180 kts | 251° |
| 2026-05-05 20:41 | 46.21274 | 5.50774 | 7315 ft | 180 kts | 252° |
| 2026-05-05 20:42 | 46.20874 | 5.49068 | 7115 ft | 179 kts | 251° |
| 2026-05-05 20:42 | 46.20475 | 5.47372 | 7013 ft | 175 kts | 251° |
| 2026-05-05 20:42 | 46.20090 | 5.45736 | 6839 ft | 176 kts | 251° |
| 2026-05-05 20:42 | 46.19695 | 5.44054 | 6606 ft | 178 kts | 251° |
| 2026-05-05 20:43 | 46.19293 | 5.42350 | 6354 ft | 180 kts | 251° |
| 2026-05-05 20:43 | 46.18889 | 5.40635 | 6103 ft | 181 kts | 251° |
| 2026-05-05 20:43 | 46.18419 | 5.38954 | 5857 ft | 182 kts | 240° |
| 2026-05-05 20:43 | 46.17577 | 5.37607 | 5602 ft | 182 kts | 218° |
| 2026-05-05 20:44 | 46.16606 | 5.36435 | 5353 ft | 182 kts | 223° |
| 2026-05-05 20:44 | 46.15668 | 5.35219 | 5109 ft | 181 kts | 222° |
| 2026-05-05 20:44 | 46.14748 | 5.34060 | 5089 ft | 170 kts | 222° |
| 2026-05-05 20:44 | 46.13871 | 5.32967 | 5087 ft | 164 kts | 221° |
| 2026-05-05 20:45 | 46.12194 | 5.30877 | 5084 ft | 158 kts | 222° |
| 2026-05-05 20:45 | 46.11363 | 5.29841 | 5085 ft | 159 kts | 221° |
| 2026-05-05 20:45 | 46.10519 | 5.28791 | 5085 ft | 162 kts | 222° |
| 2026-05-05 20:46 | 46.09662 | 5.27723 | 5087 ft | 164 kts | 221° |
| 2026-05-05 20:46 | 46.08798 | 5.26647 | 5086 ft | 164 kts | 221° |
| 2026-05-05 20:46 | 46.07933 | 5.25570 | 5086 ft | 165 kts | 221° |
| 2026-05-05 20:46 | 46.07066 | 5.24491 | 5087 ft | 165 kts | 221° |
| 2026-05-05 20:47 | 46.06189 | 5.23399 | 4978 ft | 171 kts | 222° |
| 2026-05-05 20:47 | 46.05277 | 5.22263 | 4779 ft | 175 kts | 222° |
| 2026-05-05 20:47 | 46.04360 | 5.21123 | 4582 ft | 178 kts | 221° |
| 2026-05-05 20:47 | 46.03422 | 5.19959 | 4384 ft | 179 kts | 221° |
| 2026-05-05 20:48 | 46.02480 | 5.18790 | 4183 ft | 179 kts | 221° |
| 2026-05-05 20:48 | 46.01537 | 5.17622 | 3982 ft | 179 kts | 221° |
| 2026-05-05 20:48 | 46.00596 | 5.16458 | 3783 ft | 178 kts | 221° |
| 2026-05-05 20:48 | 45.99656 | 5.15295 | 3577 ft | 178 kts | 221° |
| 2026-05-05 20:49 | 45.98714 | 5.14132 | 3383 ft | 178 kts | 221° |
| 2026-05-05 20:49 | 45.97777 | 5.12974 | 3181 ft | 178 kts | 221° |
| 2026-05-05 20:49 | 45.96848 | 5.11830 | 3091 ft | 172 kts | 221° |
| 2026-05-05 20:49 | 45.95973 | 5.10755 | 3087 ft | 165 kts | 221° |
| 2026-05-05 20:50 | 45.95114 | 5.09702 | 3086 ft | 161 kts | 221° |
| 2026-05-05 20:50 | 45.94266 | 5.08665 | 3088 ft | 159 kts | 221° |
| 2026-05-05 20:50 | 45.93425 | 5.07635 | 3089 ft | 159 kts | 220° |
| 2026-05-05 20:50 | 45.92408 | 5.07051 | 3081 ft | 160 kts | 189° |
| 2026-05-05 20:51 | 45.91292 | 5.07056 | 3082 ft | 160 kts | 178° |
| 2026-05-05 20:51 | 45.90179 | 5.07154 | 3087 ft | 160 kts | 178° |
| 2026-05-05 20:51 | 45.89071 | 5.07278 | 3081 ft | 160 kts | 176° |
| 2026-05-05 20:51 | 45.87964 | 5.07421 | 3083 ft | 160 kts | 176° |
| 2026-05-05 20:52 | 45.86855 | 5.07555 | 3087 ft | 160 kts | 176° |
| 2026-05-05 20:52 | 45.85743 | 5.07692 | 3084 ft | 160 kts | 176° |
| 2026-05-05 20:52 | 45.84630 | 5.07828 | 2957 ft | 167 kts | 176° |
| 2026-05-05 20:52 | 45.83440 | 5.07971 | 2737 ft | 176 kts | 176° |
| 2026-05-05 20:53 | 45.82206 | 5.08119 | 2500 ft | 180 kts | 176° |
| 2026-05-05 20:53 | 45.80949 | 5.08276 | 2259 ft | 182 kts | 176° |
| 2026-05-05 20:53 | 45.79788 | 5.08414 | 2033 ft | 145 kts | 177° |
| 2026-05-05 20:53 | 45.78934 | 5.08523 | 1867 ft | 109 kts | 177° |
| 2026-05-05 20:54 | 45.78237 | 5.08612 | 1737 ft | 97 kts | 177° |
| 2026-05-05 20:54 | 45.77580 | 5.08692 | 1612 ft | 94 kts | 178° |
| 2026-05-05 20:54 | 45.76941 | 5.08769 | 1489 ft | 93 kts | 177° |
| 2026-05-05 20:54 | 45.76300 | 5.08848 | 1367 ft | 92 kts | 177° |
| 2026-05-05 20:55 | 45.75670 | 5.08926 | 1248 ft | 89 kts | 176° |
| 2026-05-05 20:55 | 45.75061 | 5.09000 | 1129 ft | 87 kts | 176° |
| 2026-05-05 20:55 | 45.74455 | 5.09081 | 1010 ft | 88 kts | 176° |
| 2026-05-05 20:55 | 45.73842 | 5.09149 | 878 ft | 89 kts | 177° |
| 2026-05-05 20:56 | 45.73223 | 5.09222 | 769 ft | 86 kts | 176° |
| 2026-05-05 20:56 | 45.72775 | 5.09273 | 772 ft | 48 kts | 175° |
| 2026-05-05 20:56 | 45.72456 | 5.09313 | 778 ft | 51 kts | 176° |
| 2026-05-05 20:56 | 45.72158 | 5.09306 | 782 ft | 32 kts | 192° |
| 2026-05-05 20:57 | 45.71999 | 5.09207 | 786 ft | 15 kts | 238° |
| 2026-05-05 20:57 | 45.71977 | 5.09138 | 788 ft | 0 kts | 263° |